createdAt,value
2022-11-08T00:00:47.993Z,100077.79
2022-11-08T00:03:20.376Z,100070.30
2022-11-08T00:06:10.678Z,100074.41
2022-11-08T00:09:00.890Z,100076.16
2022-11-08T00:11:50.940Z,100076.81
2022-11-08T00:14:23.136Z,100077.05
2022-11-08T00:16:55.302Z,100081.82
2022-11-08T00:19:28.245Z,100082.83
2022-11-08T00:22:01.559Z,100088.81
2022-11-08T00:24:34.930Z,100090.30
2022-11-08T00:27:09.329Z,100092.62
2022-11-08T00:29:41.904Z,100089.71
2022-11-08T00:32:16.280Z,100085.52
2022-11-08T00:34:49.565Z,100087.15
2022-11-08T00:37:23.144Z,100089.65
2022-11-08T00:39:55.366Z,100090.87
2022-11-08T00:42:27.558Z,100091.28
2022-11-08T00:44:59.777Z,100091.84
2022-11-08T00:47:32.105Z,100093.14
2022-11-08T00:50:04.367Z,100087.33
2022-11-08T00:52:36.670Z,100088.27
2022-11-08T00:55:11.700Z,100090.16
2022-11-08T00:58:00.244Z,100091.45
2022-11-08T01:00:33.061Z,100083.55
2022-11-08T01:03:20.401Z,100087.06
2022-11-08T01:05:54.347Z,100082.29
2022-11-08T01:08:26.645Z,100077.80
2022-11-08T01:11:02.425Z,100074.52
2022-11-08T01:13:34.893Z,100074.89
2022-11-08T01:16:12.277Z,100072.30
2022-11-08T01:18:45.788Z,100078.63
2022-11-08T01:21:18.951Z,100076.71
2022-11-08T01:23:51.705Z,100081.65
2022-11-08T01:26:28.803Z,100083.62
2022-11-08T01:29:01.319Z,100087.55
2022-11-08T01:31:34.330Z,100087.48
2022-11-08T01:34:06.627Z,100085.41
2022-11-08T01:36:39.665Z,100087.23
2022-11-08T01:39:11.913Z,100083.50
2022-11-08T01:41:44.359Z,100088.31
2022-11-08T01:44:20.549Z,100083.19
2022-11-08T01:46:52.872Z,100089.23
2022-11-08T01:49:36.357Z,100084.33
2022-11-08T01:52:28.414Z,100083.34
2022-11-08T01:55:09.853Z,100076.11
2022-11-08T01:57:49.060Z,100071.73
2022-11-08T02:00:21.814Z,100070.98
2022-11-08T02:02:59.362Z,100074.10
2022-11-08T02:05:32.730Z,100073.83
2022-11-08T02:08:08.015Z,100076.36
2022-11-08T02:10:42.112Z,100075.83
2022-11-08T02:13:18.371Z,100074.58
2022-11-08T02:15:50.803Z,100071.83
2022-11-08T02:18:28.214Z,100075.89
2022-11-08T02:21:09.242Z,100078.17
2022-11-08T02:23:48.191Z,100082.86
2022-11-08T02:26:23.738Z,100081.13
2022-11-08T02:28:56.471Z,100082.35
2022-11-08T02:31:28.613Z,100081.45
2022-11-08T02:34:01.293Z,100080.38
2022-11-08T02:36:33.413Z,100080.07
2022-11-08T02:39:05.603Z,100077.02
2022-11-08T02:41:37.782Z,100074.30
2022-11-08T02:44:10.068Z,100066.03
2022-11-08T02:46:42.210Z,100060.05
2022-11-08T02:49:14.533Z,100059.87
2022-11-08T02:51:46.730Z,100059.94
2022-11-08T02:54:18.896Z,100064.80
2022-11-08T02:56:51.045Z,100063.76
2022-11-08T02:59:23.220Z,100064.66
2022-11-08T03:01:55.526Z,100065.66
2022-11-08T03:04:27.800Z,100071.21
2022-11-08T03:07:00.036Z,100073.39
2022-11-08T03:09:32.338Z,100070.63
2022-11-08T03:12:04.720Z,100071.47
2022-11-08T03:14:36.904Z,100067.61
2022-11-08T03:17:09.131Z,100064.36
2022-11-08T03:19:41.503Z,100063.86
2022-11-08T03:22:13.716Z,100068.43
2022-11-08T03:24:45.967Z,100072.27
2022-11-08T03:27:19.411Z,100069.91
2022-11-08T03:29:51.937Z,100070.00
2022-11-08T03:32:24.091Z,100069.02
2022-11-08T03:34:56.248Z,100066.47
2022-11-08T03:37:28.465Z,100063.33
2022-11-08T03:40:00.617Z,100065.52
2022-11-08T03:42:32.831Z,100069.36
2022-11-08T03:45:05.299Z,100073.09
2022-11-08T03:47:41.826Z,100076.55
2022-11-08T03:50:15.813Z,100080.98
2022-11-08T03:52:50.102Z,100077.59
2022-11-08T03:55:24.729Z,100078.20
2022-11-08T03:57:57.626Z,100073.30
2022-11-08T04:00:31.494Z,100069.93
2022-11-08T04:03:07.327Z,100066.77
2022-11-08T04:05:39.571Z,100063.77
2022-11-08T04:08:12.049Z,100060.59
2022-11-08T04:10:44.342Z,100059.83
2022-11-08T04:13:34.330Z,100063.21
2022-11-08T04:16:07.444Z,100059.71
2022-11-08T04:18:57.354Z,100060.88
2022-11-08T04:21:29.802Z,100063.36
2022-11-08T04:24:02.101Z,100066.25
2022-11-08T04:26:34.294Z,100071.02
2022-11-08T04:29:06.516Z,100074.07
2022-11-08T04:31:39.197Z,100073.87
2022-11-08T04:34:11.520Z,100069.28
2022-11-08T04:36:43.733Z,100070.42
2022-11-08T04:39:15.904Z,100070.23
2022-11-08T04:41:48.098Z,100076.29
2022-11-08T04:44:20.342Z,100079.63
2022-11-08T04:46:52.356Z,100079.66
2022-11-08T04:49:24.524Z,100083.36
2022-11-08T04:51:56.720Z,100084.39
2022-11-08T04:54:28.886Z,100086.98
2022-11-08T04:57:01.105Z,100089.46
2022-11-08T04:59:33.375Z,100085.85
2022-11-08T05:02:05.676Z,100089.21
2022-11-08T05:04:37.993Z,100088.14
2022-11-08T05:07:10.139Z,100090.36
2022-11-08T05:09:42.387Z,100086.69
2022-11-08T05:12:14.600Z,100088.96
2022-11-08T05:14:46.795Z,100086.98
2022-11-08T05:17:19.219Z,100081.75
2022-11-08T05:20:09.511Z,100082.93
2022-11-08T05:22:59.676Z,100080.02
2022-11-08T05:25:32.177Z,100082.11
2022-11-08T05:28:04.594Z,100082.41
2022-11-08T05:30:36.947Z,100084.15
2022-11-08T05:33:09.554Z,100089.02
2022-11-08T05:35:42.075Z,100086.26
2022-11-08T05:38:14.403Z,100085.29
2022-11-08T05:40:46.749Z,100087.52
2022-11-08T05:43:19.259Z,100088.52
2022-11-08T05:45:51.905Z,100091.11
2022-11-08T05:48:24.176Z,100096.08
2022-11-08T05:50:56.833Z,100093.86
2022-11-08T05:53:30.048Z,100099.27
2022-11-08T05:56:03.601Z,100099.47
2022-11-08T05:58:37.475Z,100102.81
2022-11-08T06:01:12.441Z,100107.44
2022-11-08T06:03:43.484Z,100110.13
2022-11-08T06:06:17.673Z,100113.52
2022-11-08T06:08:51.571Z,100116.18
2022-11-08T06:11:42.465Z,100116.77
2022-11-08T06:14:14.683Z,100114.31
2022-11-08T06:16:46.911Z,100114.95
2022-11-08T06:19:19.071Z,100121.05
2022-11-08T06:21:51.291Z,100117.70
2022-11-08T06:24:23.820Z,100125.73
2022-11-08T06:26:55.991Z,100129.22
2022-11-08T06:29:28.282Z,100128.84
2022-11-08T06:32:00.477Z,100129.48
2022-11-08T06:34:32.668Z,100134.17
2022-11-08T06:37:05.569Z,100135.41
2022-11-08T06:39:37.851Z,100132.65
2022-11-08T06:42:10.328Z,100137.91
2022-11-08T06:44:42.520Z,100137.98
2022-11-08T06:47:14.944Z,100142.32
2022-11-08T06:49:47.139Z,100139.61
2022-11-08T06:52:19.385Z,100142.03
2022-11-08T06:54:52.273Z,100147.75
2022-11-08T06:57:24.462Z,100149.11
2022-11-08T06:59:56.733Z,100141.81
2022-11-08T07:02:29.107Z,100139.35
2022-11-08T07:05:01.492Z,100143.21
2022-11-08T07:07:33.705Z,100143.34
2022-11-08T07:10:06.811Z,100138.06
2022-11-08T07:12:39.443Z,100143.94
2022-11-08T07:15:12.525Z,100132.64
2022-11-08T07:17:44.807Z,100134.02
2022-11-08T07:20:17.256Z,100134.55
2022-11-08T07:22:49.498Z,100140.75
2022-11-08T07:25:21.948Z,100144.78
2022-11-08T07:27:57.955Z,100145.93
2022-11-08T07:30:30.998Z,100134.83
2022-11-08T07:33:03.548Z,100136.96
2022-11-08T07:35:35.893Z,100139.58
2022-11-08T07:38:08.363Z,100143.02
2022-11-08T07:40:40.589Z,100144.63
2022-11-08T07:43:13.347Z,100144.83
2022-11-08T07:45:45.703Z,100148.85
2022-11-08T07:48:17.900Z,100150.36
2022-11-08T07:50:50.086Z,100141.20
2022-11-08T07:53:22.499Z,100146.34
2022-11-08T07:55:55.408Z,100149.31
2022-11-08T07:58:28.013Z,100150.41
2022-11-08T08:01:04.500Z,100158.27
2022-11-08T08:03:36.687Z,100156.05
2022-11-08T08:06:09.159Z,100154.02
2022-11-08T08:08:41.939Z,100153.59
2022-11-08T08:11:14.600Z,100160.05
2022-11-08T08:13:46.763Z,100157.67
2022-11-08T08:16:19.136Z,100158.63
2022-11-08T08:18:56.359Z,100158.90
2022-11-08T08:21:29.107Z,100161.77
2022-11-08T08:24:01.245Z,100162.54
2022-11-08T08:26:33.541Z,100153.02
2022-11-08T08:29:05.739Z,100143.60
2022-11-08T08:31:37.956Z,100139.55
2022-11-08T08:34:10.065Z,100131.50
2022-11-08T08:36:42.522Z,100133.08
2022-11-08T08:39:14.920Z,100136.14
2022-11-08T08:41:47.141Z,100131.49
2022-11-08T08:44:19.410Z,100130.94
2022-11-08T08:46:51.606Z,100129.08
2022-11-08T08:49:23.773Z,100127.73
2022-11-08T08:51:56.044Z,100126.95
2022-11-08T08:54:29.587Z,100132.41
2022-11-08T08:57:01.915Z,100132.39
2022-11-08T09:02:26.196Z,100140.17
2022-11-08T09:04:59.235Z,100138.54
2022-11-08T09:07:31.535Z,100138.80
2022-11-08T09:10:03.926Z,100138.77
2022-11-08T09:12:37.196Z,100142.00
2022-11-08T09:15:11.185Z,100145.83
2022-11-08T09:17:43.760Z,100145.83
2022-11-08T09:20:17.262Z,100143.09
2022-11-08T09:22:49.684Z,100137.02
2022-11-08T09:25:22.085Z,100141.61
2022-11-08T09:27:56.787Z,100138.77
2022-11-08T09:30:27.674Z,100142.81
2022-11-08T09:33:01.729Z,100144.91
2022-11-08T09:35:33.547Z,100149.59
2022-11-08T09:38:05.764Z,100155.64
2022-11-08T09:40:41.902Z,100158.38
2022-11-08T09:43:40.249Z,100159.48
2022-11-08T09:46:18.756Z,100160.06
2022-11-08T09:48:52.376Z,100155.20
2022-11-08T09:51:26.318Z,100155.33
2022-11-08T09:54:01.192Z,100151.70
2022-11-08T09:56:36.645Z,100150.65
2022-11-08T09:59:21.096Z,100151.05
2022-11-08T10:01:53.355Z,100152.77
2022-11-08T10:04:27.789Z,100149.64
2022-11-08T10:07:14.569Z,100153.27
2022-11-08T10:10:00.802Z,100148.98
2022-11-08T10:12:44.809Z,100151.69
2022-11-08T10:15:26.404Z,100151.35
2022-11-08T10:18:31.910Z,100144.27
2022-11-08T10:21:12.238Z,100142.11
2022-11-08T10:23:47.434Z,100134.98
2022-11-08T10:26:26.707Z,100138.41
2022-11-08T10:29:01.171Z,100137.65
2022-11-08T10:31:36.632Z,100139.41
2022-11-08T10:34:18.194Z,100137.42
2022-11-08T10:36:52.691Z,100137.65
2022-11-08T10:39:29.238Z,100133.09
2022-11-08T10:42:09.263Z,100123.83
2022-11-08T10:44:43.787Z,100122.04
2022-11-08T10:47:23.124Z,100120.59
2022-11-08T10:50:00.905Z,100119.95
2022-11-08T10:52:39.571Z,100113.40
2022-11-08T10:55:24.232Z,100116.56
2022-11-08T10:57:56.450Z,100113.50
2022-11-08T11:00:35.403Z,100113.84
2022-11-08T11:03:29.079Z,100112.92
2022-11-08T11:06:06.464Z,100114.32
2022-11-08T11:08:52.073Z,100110.96
2022-11-08T11:11:28.492Z,100109.63
2022-11-08T11:14:21.901Z,100104.86
2022-11-08T11:17:07.690Z,100100.23
2022-11-08T11:19:44.343Z,100104.04
2022-11-08T11:22:17.433Z,100101.16
2022-11-08T11:24:54.951Z,100106.67
2022-11-08T11:27:33.334Z,100096.61
2022-11-08T11:30:25.221Z,100091.91
2022-11-08T11:33:07.398Z,100089.16
2022-11-08T11:35:47.888Z,100088.14
2022-11-08T11:38:31.499Z,100088.54
2022-11-08T11:41:11.216Z,100086.50
2022-11-08T11:43:49.489Z,100088.13
2022-11-08T11:46:29.156Z,100089.13
2022-11-08T11:49:05.926Z,100092.52
2022-11-08T11:51:38.297Z,100093.63
2022-11-08T11:54:12.848Z,100090.71
2022-11-08T11:56:53.898Z,100089.38
2022-11-08T11:59:47.647Z,100089.76
2022-11-08T12:03:06.270Z,100086.38
2022-11-08T12:05:48.362Z,100079.95
2022-11-08T12:08:32.302Z,100080.20
2022-11-08T12:11:21.032Z,100072.46
2022-11-08T12:14:08.201Z,100068.97
2022-11-08T12:16:52.658Z,100069.98
2022-11-08T12:19:41.738Z,100068.23
2022-11-08T12:22:40.260Z,100064.50
2022-11-08T12:25:21.184Z,100069.33
2022-11-08T12:27:58.273Z,100066.52
2022-11-08T12:30:48.124Z,100067.98
2022-11-08T12:33:41.157Z,100063.23
2022-11-08T12:36:24.343Z,100064.55
2022-11-08T12:39:06.024Z,100065.88
2022-11-08T12:41:53.628Z,100059.61
2022-11-08T12:44:55.006Z,100062.01
2022-11-08T12:47:36.724Z,100063.55
2022-11-08T12:50:25.943Z,100062.97
2022-11-08T12:53:24.737Z,100060.80
2022-11-08T12:55:59.589Z,100059.44
2022-11-08T12:58:37.264Z,100063.23
2022-11-08T13:01:13.140Z,100066.68
2022-11-08T13:04:20.154Z,100065.16
2022-11-08T13:06:59.027Z,100071.44
2022-11-08T13:09:41.566Z,100071.23
2022-11-08T13:12:29.837Z,100076.54
2022-11-08T13:15:04.742Z,100080.69
2022-11-08T13:17:37.115Z,100084.06
2022-11-08T13:20:43.414Z,100080.02
2022-11-08T13:23:17.677Z,100076.31
2022-11-08T13:25:50.793Z,100073.96
2022-11-08T13:28:54.754Z,100079.87
2022-11-08T13:31:49.223Z,100079.88
2022-11-08T13:34:36.058Z,100078.42
2022-11-08T13:37:34.824Z,100082.78
2022-11-08T13:40:28.114Z,100082.19
2022-11-08T13:43:23.834Z,100081.82
2022-11-08T13:45:56.846Z,100079.27
2022-11-08T13:48:42.381Z,100074.15
2022-11-08T13:51:29.185Z,100074.91
2022-11-08T13:54:03.102Z,100072.69
2022-11-08T13:56:46.971Z,100075.48
2022-11-08T14:00:00.048Z,100071.83
2022-11-08T14:02:48.827Z,100067.55
2022-11-08T14:05:48.440Z,100062.98
2022-11-08T14:08:42.519Z,100062.92
2022-11-08T14:11:45.809Z,100064.56
2022-11-08T14:14:52.727Z,100059.51
2022-11-08T14:17:34.572Z,100063.20
2022-11-08T14:20:28.400Z,100063.33
2022-11-08T14:23:03.412Z,100056.77
2022-11-08T14:25:39.161Z,100060.49
2022-11-08T14:28:26.457Z,100059.80
2022-11-08T14:31:00.469Z,100065.10
2022-11-08T14:33:34.052Z,100066.20
2022-11-08T14:36:09.339Z,100067.42
2022-11-08T14:38:50.848Z,100065.90
2022-11-08T14:41:29.238Z,100064.81
2022-11-08T14:44:03.940Z,100064.08
2022-11-08T14:46:35.769Z,100064.01
2022-11-08T14:49:20.461Z,100067.77
2022-11-08T14:52:07.813Z,100065.20
2022-11-08T14:54:43.026Z,100065.32
2022-11-08T14:57:36.681Z,100063.04
2022-11-08T15:00:19.977Z,100066.46
2022-11-08T15:02:55.013Z,100066.99
2022-11-08T15:05:38.802Z,100066.66
2022-11-08T15:08:23.005Z,100064.67
2022-11-08T15:11:01.785Z,100060.61
2022-11-08T15:13:40.373Z,100057.50
2022-11-08T15:16:13.646Z,100059.77
2022-11-08T15:18:46.488Z,100057.08
2022-11-08T15:21:30.904Z,100054.91
2022-11-08T15:24:15.210Z,100054.23
2022-11-08T15:27:07.440Z,100050.69
2022-11-08T15:29:54.691Z,100056.02
2022-11-08T15:32:27.116Z,100050.86
2022-11-08T15:34:59.668Z,100044.98
2022-11-08T15:37:37.180Z,100047.18
2022-11-08T15:40:20.185Z,100040.78
2022-11-08T15:42:53.381Z,100041.23
2022-11-08T15:45:29.057Z,100040.94
2022-11-08T15:48:13.865Z,100042.39
2022-11-08T15:50:46.034Z,100045.77
2022-11-08T15:53:18.330Z,100044.51
2022-11-08T15:55:53.287Z,100044.70
2022-11-08T15:58:29.731Z,100044.00
2022-11-08T16:01:03.589Z,100042.02
2022-11-08T16:03:36.479Z,100045.70
2022-11-08T16:06:10.887Z,100044.73
2022-11-08T16:08:43.021Z,100046.77
2022-11-08T16:11:21.904Z,100045.08
2022-11-08T16:13:55.050Z,100045.17
2022-11-08T16:16:30.033Z,100048.13
2022-11-08T16:19:06.411Z,100051.20
2022-11-08T16:21:38.624Z,100054.98
2022-11-08T16:24:11.254Z,100054.81
2022-11-08T16:26:45.497Z,100061.66
2022-11-08T16:29:23.625Z,100064.29
2022-11-08T16:31:55.925Z,100066.63
2022-11-08T16:34:28.375Z,100066.73
2022-11-08T16:37:00.598Z,100071.56
2022-11-08T16:39:32.783Z,100069.14
2022-11-08T16:42:05.954Z,100077.61
2022-11-08T16:44:39.711Z,100072.84
2022-11-08T16:47:19.109Z,100073.52
2022-11-08T16:49:51.646Z,100076.87
2022-11-08T16:52:23.970Z,100078.73
2022-11-08T16:54:56.240Z,100078.77
2022-11-08T16:57:34.756Z,100075.23
2022-11-08T17:00:10.261Z,100078.52
2022-11-08T17:02:45.474Z,100077.55
2022-11-08T17:05:23.117Z,100075.19
2022-11-08T17:07:56.926Z,100077.17
2022-11-08T17:10:31.121Z,100077.66
2022-11-08T17:13:03.359Z,100074.55
2022-11-08T17:15:35.634Z,100073.08
2022-11-08T17:18:08.029Z,100072.45
2022-11-08T17:20:40.581Z,100069.65
2022-11-08T17:23:13.874Z,100069.31
2022-11-08T17:25:46.658Z,100066.83
2022-11-08T17:28:19.069Z,100069.55
2022-11-08T17:30:51.482Z,100063.77
2022-11-08T17:33:23.673Z,100064.20
2022-11-08T17:35:55.892Z,100066.41
2022-11-08T17:38:28.112Z,100064.40
2022-11-08T17:41:06.833Z,100063.73
2022-11-08T17:43:39.457Z,100062.60
2022-11-08T17:46:12.403Z,100055.50
2022-11-08T17:48:44.725Z,100054.37
2022-11-08T17:51:17.201Z,100054.26
2022-11-08T17:53:49.517Z,100052.86
2022-11-08T17:56:21.715Z,100057.14
2022-11-08T17:58:53.894Z,100052.20
2022-11-08T18:01:26.186Z,100056.46
2022-11-08T18:03:58.601Z,100056.48
2022-11-08T18:06:30.943Z,100059.27
2022-11-08T18:09:03.298Z,100063.33
2022-11-08T18:11:35.870Z,100061.23
2022-11-08T18:14:08.261Z,100064.25
2022-11-08T18:16:40.461Z,100064.23
2022-11-08T18:19:12.736Z,100064.02
2022-11-08T18:21:45.440Z,100065.96
2022-11-08T18:24:18.583Z,100070.39
2022-11-08T18:26:51.030Z,100070.95
2022-11-08T18:29:23.609Z,100068.52
2022-11-08T18:31:56.035Z,100070.88
2022-11-08T18:34:28.636Z,100070.91
2022-11-08T18:37:00.831Z,100071.61
2022-11-08T18:39:33.038Z,100067.52
2022-11-08T18:42:05.545Z,100066.91
2022-11-08T18:44:38.191Z,100066.44
2022-11-08T18:47:10.325Z,100059.27
2022-11-08T18:49:42.696Z,100058.88
2022-11-08T18:52:15.455Z,100057.27
2022-11-08T18:54:48.799Z,100059.42
2022-11-08T18:57:21.089Z,100055.63
2022-11-08T18:59:57.215Z,100054.66
2022-11-08T19:02:32.937Z,100054.77
2022-11-08T19:05:05.613Z,100055.41
2022-11-08T19:07:37.931Z,100055.18
2022-11-08T19:10:12.201Z,100053.60
2022-11-08T19:12:44.423Z,100049.70
2022-11-08T19:15:16.874Z,100052.57
2022-11-08T19:17:53.878Z,100051.94
2022-11-08T19:20:26.150Z,100054.58
2022-11-08T19:22:58.345Z,100053.38
2022-11-08T19:25:30.513Z,100055.98
2022-11-08T19:28:02.810Z,100054.89
2022-11-08T19:30:34.952Z,100056.26
2022-11-08T19:33:07.178Z,100063.88
2022-11-08T19:35:41.411Z,100063.19
2022-11-08T19:38:13.579Z,100057.44
2022-11-08T19:40:47.467Z,100064.48
2022-11-08T19:43:21.266Z,100063.02
2022-11-08T19:45:57.401Z,100061.03
2022-11-08T19:48:31.297Z,100061.49
2022-11-08T19:51:06.795Z,100062.56
2022-11-08T19:53:41.847Z,100061.10
2022-11-08T19:56:18.137Z,100065.16
2022-11-08T19:58:51.644Z,100062.11
2022-11-08T20:01:28.768Z,100060.92
2022-11-08T20:04:03.114Z,100057.66
2022-11-08T20:06:37.592Z,100054.16
2022-11-08T20:09:12.612Z,100055.03
2022-11-08T20:11:47.573Z,100050.61
2022-11-08T20:14:21.338Z,100048.38
2022-11-08T20:16:54.727Z,100043.04
2022-11-08T20:19:27.353Z,100047.16
2022-11-08T20:22:00.068Z,100043.61
2022-11-08T20:24:32.544Z,100042.88
2022-11-08T20:27:04.813Z,100045.96
2022-11-08T20:29:37.032Z,100042.06
2022-11-08T20:32:09.536Z,100038.56
2022-11-08T20:34:41.804Z,100033.38
2022-11-08T20:37:14.794Z,100034.39
2022-11-08T20:39:47.121Z,100030.61
2022-11-08T20:42:20.948Z,100033.58
2022-11-08T20:44:53.590Z,100031.70
2022-11-08T20:47:25.718Z,100037.64
2022-11-08T20:49:58.499Z,100041.84
2022-11-08T20:52:30.696Z,100049.23
2022-11-08T20:55:02.945Z,100046.30
2022-11-08T20:57:35.085Z,100047.06
2022-11-08T21:00:13.552Z,100044.11
2022-11-08T21:02:46.102Z,100044.55
2022-11-08T21:05:18.537Z,100042.54
2022-11-08T21:08:57.250Z,100041.98
2022-11-08T21:10:47.727Z,100041.50
2022-11-08T21:13:20.631Z,100042.24
2022-11-08T21:15:53.647Z,100041.64
2022-11-08T21:18:26.348Z,100040.34
2022-11-08T21:21:06.121Z,100036.76
2022-11-08T21:23:40.083Z,100037.85
2022-11-08T21:26:13.580Z,100040.72
2022-11-08T21:28:46.156Z,100039.91
2022-11-08T21:31:18.811Z,100037.09
2022-11-08T21:33:51.003Z,100038.52
2022-11-08T21:36:26.789Z,100035.31
2022-11-08T21:38:59.029Z,100034.02
2022-11-08T21:41:31.299Z,100037.45
2022-11-08T21:44:03.492Z,100037.91
2022-11-08T21:46:35.584Z,100034.98
2022-11-08T21:49:10.746Z,100036.68
2022-11-08T21:51:42.965Z,100034.80
2022-11-08T21:54:15.545Z,100033.90
2022-11-08T21:56:47.736Z,100034.21
2022-11-08T21:59:19.881Z,100032.91
2022-11-08T22:01:52.046Z,100034.19
2022-11-08T22:04:24.267Z,100031.63
2022-11-08T22:06:56.607Z,100029.54
2022-11-08T22:09:28.834Z,100026.66
2022-11-08T22:12:01.057Z,100026.65
2022-11-08T22:14:33.223Z,100022.67
2022-11-08T22:17:05.546Z,100025.61
2022-11-08T22:19:37.736Z,100023.16
2022-11-08T22:22:10.289Z,100020.12
2022-11-08T22:24:42.743Z,100019.63
2022-11-08T22:27:14.961Z,100017.15
2022-11-08T22:29:47.316Z,100013.52
2022-11-08T22:32:19.552Z,100015.96
2022-11-08T22:34:51.718Z,100012.46
2022-11-08T22:37:23.916Z,100009.87
2022-11-08T22:39:56.186Z,100008.35
2022-11-08T22:42:28.430Z,100007.83
2022-11-08T22:45:00.651Z,100008.41
2022-11-08T22:47:32.970Z,100003.11
2022-11-08T22:50:05.503Z,100003.24
2022-11-08T22:52:37.798Z,100000.27
2022-11-08T22:55:11.959Z,100002.31
2022-11-08T22:57:44.180Z,100001.05
2022-11-08T23:00:18.658Z,99999.02
2022-11-08T23:02:51.074Z,99997.30
2022-11-08T23:05:23.267Z,99997.91
2022-11-08T23:07:56.332Z,99994.67
2022-11-08T23:10:28.988Z,99993.23
2022-11-08T23:13:30.294Z,99990.27
2022-11-08T23:16:20.249Z,99988.92
2022-11-08T23:19:06.397Z,99988.23
2022-11-08T23:21:56.329Z,99986.71
2022-11-08T23:24:28.934Z,99990.81
2022-11-08T23:27:19.790Z,99988.13
2022-11-08T23:30:10.160Z,99990.36
2022-11-08T23:32:46.761Z,99999.02
2022-11-08T23:35:20.719Z,100004.69
2022-11-08T23:37:53.474Z,100013.29
2022-11-08T23:40:43.255Z,100017.19
2022-11-08T23:43:34.762Z,99993.86
2022-11-08T23:46:12.021Z,99967.26
2022-11-08T23:48:43.981Z,99976.77
2022-11-08T23:51:15.915Z,99976.91
2022-11-08T23:53:48.013Z,99978.16
2022-11-08T23:56:24.270Z,99986.02
2022-11-08T23:58:58.466Z,99975.59
